sensor_id;sensor_type;location;lat;lon;timestamp;P1;durP1;ratioP1;P2;durP2;ratioP2
8048;SDS011;20935;42.660;23.342;2024-02-26T00:00:52;30.07;;;21.17;;
8048;SDS011;20935;42.660;23.342;2024-02-26T00:03:39;27.10;;;20.17;;
8048;SDS011;20935;42.660;23.342;2024-02-26T00:06:27;28.37;;;21.63;;
8048;SDS011;20935;42.660;23.342;2024-02-26T00:09:15;31.90;;;22.30;;
8048;SDS011;20935;42.660;23.342;2024-02-26T00:12:02;33.90;;;21.40;;
8048;SDS011;20935;42.660;23.342;2024-02-26T00:14:50;25.90;;;19.40;;
8048;SDS011;20935;42.660;23.342;2024-02-26T00:17:38;31.73;;;21.57;;
8048;SDS011;20935;42.660;23.342;2024-02-26T00:20:25;29.17;;;20.70;;
8048;SDS011;20935;42.660;23.342;2024-02-26T00:23:14;28.97;;;19.97;;
8048;SDS011;20935;42.660;23.342;2024-02-26T00:26:02;26.37;;;20.50;;
8048;SDS011;20935;42.660;23.342;2024-02-26T00:28:49;30.80;;;21.23;;
8048;SDS011;20935;42.660;23.342;2024-02-26T00:31:39;27.93;;;21.63;;
8048;SDS011;20935;42.660;23.342;2024-02-26T00:34:26;30.57;;;21.73;;
8048;SDS011;20935;42.660;23.342;2024-02-26T00:37:13;31.07;;;21.73;;
8048;SDS011;20935;42.660;23.342;2024-02-26T00:40:00;25.20;;;19.80;;
8048;SDS011;20935;42.660;23.342;2024-02-26T00:42:51;30.40;;;20.03;;
8048;SDS011;20935;42.660;23.342;2024-02-26T00:45:37;27.70;;;20.53;;
8048;SDS011;20935;42.660;23.342;2024-02-26T00:48:24;26.60;;;21.03;;
8048;SDS011;20935;42.660;23.342;2024-02-26T00:51:11;28.77;;;20.43;;
8048;SDS011;20935;42.660;23.342;2024-02-26T00:54:01;34.07;;;22.23;;
8048;SDS011;20935;42.660;23.342;2024-02-26T00:56:48;29.03;;;21.60;;
8048;SDS011;20935;42.660;23.342;2024-02-26T00:59:37;29.37;;;19.97;;
8048;SDS011;20935;42.660;23.342;2024-02-26T01:02:24;28.17;;;20.20;;
8048;SDS011;20935;42.660;23.342;2024-02-26T01:05:10;29.00;;;20.60;;
8048;SDS011;20935;42.660;23.342;2024-02-26T01:07:57;30.93;;;21.03;;
8048;SDS011;20935;42.660;23.342;2024-02-26T01:10:44;26.17;;;18.97;;
8048;SDS011;20935;42.660;23.342;2024-02-26T01:13:31;28.10;;;19.40;;
8048;SDS011;20935;42.660;23.342;2024-02-26T01:16:19;28.43;;;21.20;;
8048;SDS011;20935;42.660;23.342;2024-02-26T01:19:06;26.93;;;19.60;;
8048;SDS011;20935;42.660;23.342;2024-02-26T01:21:53;29.03;;;20.33;;
8048;SDS011;20935;42.660;23.342;2024-02-26T01:24:40;26.70;;;20.27;;
8048;SDS011;20935;42.660;23.342;2024-02-26T01:27:27;27.20;;;19.83;;
8048;SDS011;20935;42.660;23.342;2024-02-26T01:30:14;25.43;;;18.80;;
8048;SDS011;20935;42.660;23.342;2024-02-26T01:33:03;28.07;;;19.67;;
8048;SDS011;20935;42.660;23.342;2024-02-26T01:35:50;27.17;;;20.97;;
8048;SDS011;20935;42.660;23.342;2024-02-26T01:38:36;28.70;;;19.77;;
8048;SDS011;20935;42.660;23.342;2024-02-26T01:41:23;24.00;;;18.10;;
8048;SDS011;20935;42.660;23.342;2024-02-26T01:44:11;26.17;;;20.23;;
8048;SDS011;20935;42.660;23.342;2024-02-26T01:47:01;29.73;;;20.27;;
8048;SDS011;20935;42.660;23.342;2024-02-26T01:49:49;26.87;;;18.93;;
8048;SDS011;20935;42.660;23.342;2024-02-26T01:52:36;28.33;;;20.77;;
8048;SDS011;20935;42.660;23.342;2024-02-26T01:55:23;29.53;;;18.90;;
8048;SDS011;20935;42.660;23.342;2024-02-26T01:58:10;26.60;;;19.23;;
8048;SDS011;20935;42.660;23.342;2024-02-26T02:00:57;28.03;;;19.07;;
8048;SDS011;20935;42.660;23.342;2024-02-26T02:03:45;29.60;;;19.77;;
8048;SDS011;20935;42.660;23.342;2024-02-26T02:06:33;26.97;;;18.53;;
8048;SDS011;20935;42.660;23.342;2024-02-26T02:09:21;25.80;;;18.87;;
8048;SDS011;20935;42.660;23.342;2024-02-26T02:12:08;28.77;;;18.43;;
8048;SDS011;20935;42.660;23.342;2024-02-26T02:14:56;25.80;;;16.40;;
8048;SDS011;20935;42.660;23.342;2024-02-26T02:17:42;25.43;;;17.67;;
8048;SDS011;20935;42.660;23.342;2024-02-26T02:20:33;25.20;;;18.33;;
8048;SDS011;20935;42.660;23.342;2024-02-26T02:23:20;24.80;;;18.23;;
8048;SDS011;20935;42.660;23.342;2024-02-26T02:26:06;25.43;;;18.63;;
8048;SDS011;20935;42.660;23.342;2024-02-26T02:28:53;26.30;;;19.07;;
8048;SDS011;20935;42.660;23.342;2024-02-26T02:31:40;26.20;;;18.63;;
8048;SDS011;20935;42.660;23.342;2024-02-26T02:34:27;24.47;;;17.90;;
8048;SDS011;20935;42.660;23.342;2024-02-26T02:37:16;24.30;;;18.30;;
8048;SDS011;20935;42.660;23.342;2024-02-26T02:40:03;24.27;;;17.97;;
8048;SDS011;20935;42.660;23.342;2024-02-26T02:42:53;25.87;;;18.57;;
8048;SDS011;20935;42.660;23.342;2024-02-26T02:45:40;25.20;;;18.87;;
8048;SDS011;20935;42.660;23.342;2024-02-26T02:48:27;30.93;;;19.57;;
8048;SDS011;20935;42.660;23.342;2024-02-26T02:51:13;25.87;;;18.67;;
8048;SDS011;20935;42.660;23.342;2024-02-26T02:54:02;24.97;;;17.47;;
8048;SDS011;20935;42.660;23.342;2024-02-26T02:56:48;28.73;;;18.03;;
8048;SDS011;20935;42.660;23.342;2024-02-26T02:59:35;24.63;;;17.67;;
8048;SDS011;20935;42.660;23.342;2024-02-26T03:02:22;22.73;;;17.73;;
8048;SDS011;20935;42.660;23.342;2024-02-26T03:05:10;25.77;;;18.43;;
8048;SDS011;20935;42.660;23.342;2024-02-26T03:07:57;26.87;;;17.60;;
8048;SDS011;20935;42.660;23.342;2024-02-26T03:10:46;26.27;;;17.47;;
8048;SDS011;20935;42.660;23.342;2024-02-26T03:13:33;22.90;;;17.23;;
8048;SDS011;20935;42.660;23.342;2024-02-26T03:16:20;26.70;;;17.57;;
8048;SDS011;20935;42.660;23.342;2024-02-26T03:19:07;26.13;;;19.07;;
8048;SDS011;20935;42.660;23.342;2024-02-26T03:21:54;24.57;;;18.33;;
8048;SDS011;20935;42.660;23.342;2024-02-26T03:24:41;23.27;;;17.63;;
8048;SDS011;20935;42.660;23.342;2024-02-26T03:27:29;24.67;;;18.37;;
8048;SDS011;20935;42.660;23.342;2024-02-26T03:30:19;27.43;;;17.70;;
8048;SDS011;20935;42.660;23.342;2024-02-26T03:33:06;25.77;;;18.43;;
8048;SDS011;20935;42.660;23.342;2024-02-26T03:35:52;24.93;;;18.77;;
8048;SDS011;20935;42.660;23.342;2024-02-26T03:38:39;24.60;;;18.33;;
8048;SDS011;20935;42.660;23.342;2024-02-26T03:41:26;24.70;;;17.67;;
8048;SDS011;20935;42.660;23.342;2024-02-26T03:44:14;25.10;;;17.90;;
8048;SDS011;20935;42.660;23.342;2024-02-26T03:47:04;24.63;;;16.67;;
8048;SDS011;20935;42.660;23.342;2024-02-26T03:49:51;25.80;;;18.33;;
8048;SDS011;20935;42.660;23.342;2024-02-26T03:52:40;23.37;;;18.00;;
8048;SDS011;20935;42.660;23.342;2024-02-26T03:55:31;28.83;;;17.67;;
8048;SDS011;20935;42.660;23.342;2024-02-26T03:58:18;25.43;;;18.73;;
8048;SDS011;20935;42.660;23.342;2024-02-26T04:01:08;25.07;;;17.60;;
8048;SDS011;20935;42.660;23.342;2024-02-26T04:03:55;26.63;;;18.07;;
8048;SDS011;20935;42.660;23.342;2024-02-26T04:06:44;28.17;;;17.60;;
8048;SDS011;20935;42.660;23.342;2024-02-26T04:09:30;27.10;;;18.67;;
8048;SDS011;20935;42.660;23.342;2024-02-26T04:12:17;26.23;;;19.43;;
8048;SDS011;20935;42.660;23.342;2024-02-26T04:15:05;25.77;;;18.67;;
8048;SDS011;20935;42.660;23.342;2024-02-26T04:17:53;26.70;;;18.07;;
8048;SDS011;20935;42.660;23.342;2024-02-26T04:20:40;23.13;;;18.17;;
8048;SDS011;20935;42.660;23.342;2024-02-26T04:23:27;31.13;;;19.37;;
8048;SDS011;20935;42.660;23.342;2024-02-26T04:26:17;26.97;;;18.90;;
8048;SDS011;20935;42.660;23.342;2024-02-26T04:29:03;27.43;;;19.43;;
8048;SDS011;20935;42.660;23.342;2024-02-26T04:31:50;29.60;;;18.63;;
8048;SDS011;20935;42.660;23.342;2024-02-26T04:34:38;27.83;;;18.37;;
8048;SDS011;20935;42.660;23.342;2024-02-26T04:37:25;29.53;;;18.97;;
8048;SDS011;20935;42.660;23.342;2024-02-26T04:40:16;25.80;;;19.30;;
8048;SDS011;20935;42.660;23.342;2024-02-26T04:43:06;26.17;;;17.93;;
8048;SDS011;20935;42.660;23.342;2024-02-26T04:45:52;29.67;;;19.50;;
8048;SDS011;20935;42.660;23.342;2024-02-26T04:48:40;27.10;;;20.13;;
8048;SDS011;20935;42.660;23.342;2024-02-26T04:51:28;26.00;;;19.47;;
8048;SDS011;20935;42.660;23.342;2024-02-26T04:54:15;26.23;;;17.93;;
8048;SDS011;20935;42.660;23.342;2024-02-26T04:57:02;29.57;;;21.43;;
8048;SDS011;20935;42.660;23.342;2024-02-26T04:59:50;29.80;;;19.73;;
8048;SDS011;20935;42.660;23.342;2024-02-26T05:02:37;31.53;;;22.17;;
8048;SDS011;20935;42.660;23.342;2024-02-26T05:05:24;26.90;;;20.30;;
8048;SDS011;20935;42.660;23.342;2024-02-26T05:08:16;30.03;;;21.77;;
8048;SDS011;20935;42.660;23.342;2024-02-26T05:11:05;30.37;;;21.87;;
8048;SDS011;20935;42.660;23.342;2024-02-26T05:13:52;24.20;;;16.97;;
8048;SDS011;20935;42.660;23.342;2024-02-26T05:16:39;24.60;;;18.33;;
8048;SDS011;20935;42.660;23.342;2024-02-26T05:19:29;24.30;;;17.73;;
8048;SDS011;20935;42.660;23.342;2024-02-26T05:22:16;33.97;;;21.10;;
8048;SDS011;20935;42.660;23.342;2024-02-26T05:25:05;31.80;;;18.33;;
8048;SDS011;20935;42.660;23.342;2024-02-26T05:27:52;26.50;;;19.10;;
8048;SDS011;20935;42.660;23.342;2024-02-26T05:30:38;24.53;;;19.33;;
8048;SDS011;20935;42.660;23.342;2024-02-26T05:33:29;28.80;;;19.70;;
8048;SDS011;20935;42.660;23.342;2024-02-26T05:36:19;29.23;;;20.03;;
8048;SDS011;20935;42.660;23.342;2024-02-26T05:39:06;25.70;;;18.37;;
8048;SDS011;20935;42.660;23.342;2024-02-26T05:41:54;28.43;;;19.77;;
8048;SDS011;20935;42.660;23.342;2024-02-26T05:44:41;27.87;;;19.50;;
8048;SDS011;20935;42.660;23.342;2024-02-26T05:47:28;25.83;;;19.03;;
8048;SDS011;20935;42.660;23.342;2024-02-26T05:50:15;24.03;;;18.40;;
8048;SDS011;20935;42.660;23.342;2024-02-26T05:53:02;25.70;;;18.63;;
8048;SDS011;20935;42.660;23.342;2024-02-26T05:55:49;27.83;;;17.60;;
8048;SDS011;20935;42.660;23.342;2024-02-26T05:58:37;25.63;;;18.67;;
8048;SDS011;20935;42.660;23.342;2024-02-26T06:01:24;29.70;;;19.10;;
8048;SDS011;20935;42.660;23.342;2024-02-26T06:04:11;24.83;;;18.63;;
8048;SDS011;20935;42.660;23.342;2024-02-26T06:06:58;28.97;;;17.30;;
8048;SDS011;20935;42.660;23.342;2024-02-26T06:09:45;25.07;;;18.50;;
8048;SDS011;20935;42.660;23.342;2024-02-26T06:12:34;23.30;;;18.27;;
8048;SDS011;20935;42.660;23.342;2024-02-26T06:15:23;25.03;;;19.27;;
8048;SDS011;20935;42.660;23.342;2024-02-26T06:18:09;27.37;;;18.97;;
8048;SDS011;20935;42.660;23.342;2024-02-26T06:20:56;27.17;;;16.83;;
8048;SDS011;20935;42.660;23.342;2024-02-26T06:23:43;26.53;;;16.87;;
8048;SDS011;20935;42.660;23.342;2024-02-26T06:26:30;25.30;;;18.57;;
8048;SDS011;20935;42.660;23.342;2024-02-26T06:29:19;25.63;;;16.83;;
8048;SDS011;20935;42.660;23.342;2024-02-26T06:32:07;24.67;;;17.17;;
8048;SDS011;20935;42.660;23.342;2024-02-26T06:34:54;24.37;;;18.23;;
8048;SDS011;20935;42.660;23.342;2024-02-26T06:37:44;24.97;;;17.47;;
8048;SDS011;20935;42.660;23.342;2024-02-26T06:40:31;26.97;;;17.27;;
8048;SDS011;20935;42.660;23.342;2024-02-26T06:43:18;28.73;;;16.70;;
8048;SDS011;20935;42.660;23.342;2024-02-26T06:46:05;28.73;;;17.77;;
8048;SDS011;20935;42.660;23.342;2024-02-26T06:48:56;25.13;;;17.60;;
8048;SDS011;20935;42.660;23.342;2024-02-26T06:51:43;25.20;;;17.27;;
8048;SDS011;20935;42.660;23.342;2024-02-26T06:54:30;26.63;;;18.20;;
8048;SDS011;20935;42.660;23.342;2024-02-26T06:57:16;25.90;;;17.70;;
8048;SDS011;20935;42.660;23.342;2024-02-26T07:00:06;28.73;;;20.47;;
8048;SDS011;20935;42.660;23.342;2024-02-26T07:02:53;28.67;;;19.00;;
8048;SDS011;20935;42.660;23.342;2024-02-26T07:05:42;24.90;;;18.67;;
8048;SDS011;20935;42.660;23.342;2024-02-26T07:08:30;24.60;;;18.03;;
8048;SDS011;20935;42.660;23.342;2024-02-26T07:11:17;29.10;;;18.27;;
8048;SDS011;20935;42.660;23.342;2024-02-26T07:14:05;27.53;;;16.50;;
8048;SDS011;20935;42.660;23.342;2024-02-26T07:16:53;26.87;;;18.40;;
8048;SDS011;20935;42.660;23.342;2024-02-26T07:19:40;31.23;;;20.57;;
8048;SDS011;20935;42.660;23.342;2024-02-26T07:22:28;32.20;;;21.47;;
8048;SDS011;20935;42.660;23.342;2024-02-26T07:25:15;28.40;;;19.17;;
8048;SDS011;20935;42.660;23.342;2024-02-26T07:28:02;27.57;;;19.43;;
8048;SDS011;20935;42.660;23.342;2024-02-26T07:30:49;25.97;;;19.00;;
8048;SDS011;20935;42.660;23.342;2024-02-26T07:33:35;27.10;;;18.43;;
8048;SDS011;20935;42.660;23.342;2024-02-26T07:36:22;30.90;;;20.53;;
8048;SDS011;20935;42.660;23.342;2024-02-26T07:39:11;26.17;;;20.40;;
8048;SDS011;20935;42.660;23.342;2024-02-26T07:41:57;25.53;;;18.73;;
8048;SDS011;20935;42.660;23.342;2024-02-26T07:44:44;35.03;;;18.60;;
8048;SDS011;20935;42.660;23.342;2024-02-26T07:47:31;30.33;;;19.23;;
8048;SDS011;20935;42.660;23.342;2024-02-26T07:50:20;28.53;;;20.17;;
8048;SDS011;20935;42.660;23.342;2024-02-26T07:53:06;35.77;;;22.30;;
8048;SDS011;20935;42.660;23.342;2024-02-26T07:55:55;33.87;;;22.27;;
8048;SDS011;20935;42.660;23.342;2024-02-26T07:58:41;36.23;;;24.60;;
8048;SDS011;20935;42.660;23.342;2024-02-26T08:01:28;38.90;;;24.10;;
8048;SDS011;20935;42.660;23.342;2024-02-26T08:04:15;40.30;;;25.70;;
8048;SDS011;20935;42.660;23.342;2024-02-26T08:07:05;34.27;;;24.93;;
8048;SDS011;20935;42.660;23.342;2024-02-26T08:09:52;38.10;;;26.27;;
8048;SDS011;20935;42.660;23.342;2024-02-26T08:12:40;40.43;;;28.23;;
8048;SDS011;20935;42.660;23.342;2024-02-26T08:15:27;36.30;;;26.33;;
8048;SDS011;20935;42.660;23.342;2024-02-26T08:18:14;37.37;;;23.70;;
8048;SDS011;20935;42.660;23.342;2024-02-26T08:21:01;36.83;;;20.67;;
8048;SDS011;20935;42.660;23.342;2024-02-26T08:23:48;18.57;;;13.83;;
8048;SDS011;20935;42.660;23.342;2024-02-26T08:26:35;18.77;;;14.17;;
8048;SDS011;20935;42.660;23.342;2024-02-26T08:29:23;16.97;;;11.57;;
8048;SDS011;20935;42.660;23.342;2024-02-26T08:32:10;13.40;;;11.17;;
8048;SDS011;20935;42.660;23.342;2024-02-26T08:34:57;18.00;;;12.93;;
8048;SDS011;20935;42.660;23.342;2024-02-26T08:37:44;19.10;;;11.27;;
8048;SDS011;20935;42.660;23.342;2024-02-26T08:40:31;19.47;;;11.17;;
8048;SDS011;20935;42.660;23.342;2024-02-26T08:43:18;15.53;;;10.63;;
8048;SDS011;20935;42.660;23.342;2024-02-26T08:46:09;16.17;;;12.07;;
8048;SDS011;20935;42.660;23.342;2024-02-26T08:48:56;14.40;;;10.57;;
8048;SDS011;20935;42.660;23.342;2024-02-26T08:51:43;10.87;;;8.47;;
8048;SDS011;20935;42.660;23.342;2024-02-26T08:54:30;11.80;;;8.03;;
8048;SDS011;20935;42.660;23.342;2024-02-26T08:57:18;13.27;;;8.93;;
8048;SDS011;20935;42.660;23.342;2024-02-26T09:00:05;9.67;;;6.80;;
8048;SDS011;20935;42.660;23.342;2024-02-26T09:02:53;10.37;;;7.47;;
8048;SDS011;20935;42.660;23.342;2024-02-26T09:05:40;8.40;;;6.70;;
8048;SDS011;20935;42.660;23.342;2024-02-26T09:08:27;11.17;;;6.70;;
8048;SDS011;20935;42.660;23.342;2024-02-26T09:11:14;12.77;;;7.17;;
8048;SDS011;20935;42.660;23.342;2024-02-26T09:14:01;13.10;;;8.53;;
8048;SDS011;20935;42.660;23.342;2024-02-26T09:16:49;8.73;;;7.83;;
8048;SDS011;20935;42.660;23.342;2024-02-26T09:19:38;13.07;;;8.63;;
8048;SDS011;20935;42.660;23.342;2024-02-26T09:22:25;13.33;;;9.00;;
8048;SDS011;20935;42.660;23.342;2024-02-26T09:25:12;12.07;;;8.47;;
8048;SDS011;20935;42.660;23.342;2024-02-26T09:27:58;20.93;;;8.70;;
8048;SDS011;20935;42.660;23.342;2024-02-26T09:30:45;10.63;;;8.77;;
8048;SDS011;20935;42.660;23.342;2024-02-26T09:33:33;9.00;;;6.97;;
8048;SDS011;20935;42.660;23.342;2024-02-26T09:36:21;11.37;;;6.27;;
8048;SDS011;20935;42.660;23.342;2024-02-26T09:39:08;7.13;;;6.37;;
8048;SDS011;20935;42.660;23.342;2024-02-26T09:41:56;7.27;;;5.87;;
8048;SDS011;20935;42.660;23.342;2024-02-26T09:44:45;7.87;;;6.53;;
8048;SDS011;20935;42.660;23.342;2024-02-26T09:47:32;7.73;;;6.77;;
8048;SDS011;20935;42.660;23.342;2024-02-26T09:50:23;9.73;;;6.57;;
8048;SDS011;20935;42.660;23.342;2024-02-26T09:53:12;9.33;;;6.63;;
8048;SDS011;20935;42.660;23.342;2024-02-26T09:56:00;7.37;;;6.00;;
8048;SDS011;20935;42.660;23.342;2024-02-26T09:58:47;8.93;;;6.30;;
8048;SDS011;20935;42.660;23.342;2024-02-26T10:01:38;9.73;;;6.63;;
8048;SDS011;20935;42.660;23.342;2024-02-26T10:04:26;10.93;;;6.23;;
8048;SDS011;20935;42.660;23.342;2024-02-26T10:07:12;10.27;;;6.53;;
8048;SDS011;20935;42.660;23.342;2024-02-26T10:09:59;9.13;;;7.00;;
8048;SDS011;20935;42.660;23.342;2024-02-26T10:12:44;9.23;;;6.40;;
8048;SDS011;20935;42.660;23.342;2024-02-26T10:15:29;10.60;;;7.17;;
8048;SDS011;20935;42.660;23.342;2024-02-26T10:18:14;8.00;;;6.37;;
8048;SDS011;20935;42.660;23.342;2024-02-26T10:20:59;6.93;;;6.23;;
8048;SDS011;20935;42.660;23.342;2024-02-26T10:23:47;6.77;;;6.17;;
8048;SDS011;20935;42.660;23.342;2024-02-26T10:26:34;6.73;;;6.00;;
8048;SDS011;20935;42.660;23.342;2024-02-26T10:29:19;8.20;;;6.00;;
8048;SDS011;20935;42.660;23.342;2024-02-26T10:32:04;8.30;;;5.97;;
8048;SDS011;20935;42.660;23.342;2024-02-26T10:34:50;7.00;;;5.83;;
8048;SDS011;20935;42.660;23.342;2024-02-26T10:37:40;8.07;;;5.70;;
8048;SDS011;20935;42.660;23.342;2024-02-26T10:40:25;9.93;;;6.63;;
8048;SDS011;20935;42.660;23.342;2024-02-26T10:43:12;8.27;;;6.23;;
8048;SDS011;20935;42.660;23.342;2024-02-26T10:45:58;9.20;;;6.27;;
8048;SDS011;20935;42.660;23.342;2024-02-26T10:48:48;6.43;;;5.77;;
8048;SDS011;20935;42.660;23.342;2024-02-26T10:51:34;7.23;;;5.57;;
8048;SDS011;20935;42.660;23.342;2024-02-26T10:54:22;7.57;;;6.30;;
8048;SDS011;20935;42.660;23.342;2024-02-26T10:57:07;7.80;;;5.83;;
8048;SDS011;20935;42.660;23.342;2024-02-26T10:59:55;9.37;;;6.60;;
8048;SDS011;20935;42.660;23.342;2024-02-26T11:02:41;8.37;;;5.90;;
8048;SDS011;20935;42.660;23.342;2024-02-26T11:05:26;8.50;;;6.80;;
8048;SDS011;20935;42.660;23.342;2024-02-26T11:08:12;10.00;;;6.27;;
8048;SDS011;20935;42.660;23.342;2024-02-26T11:10:58;9.23;;;6.40;;
8048;SDS011;20935;42.660;23.342;2024-02-26T11:13:44;8.53;;;5.80;;
8048;SDS011;20935;42.660;23.342;2024-02-26T11:16:34;9.93;;;6.00;;
8048;SDS011;20935;42.660;23.342;2024-02-26T11:19:19;7.30;;;5.87;;
8048;SDS011;20935;42.660;23.342;2024-02-26T11:22:05;6.43;;;5.70;;
8048;SDS011;20935;42.660;23.342;2024-02-26T11:24:50;6.93;;;5.67;;
8048;SDS011;20935;42.660;23.342;2024-02-26T11:27:36;7.80;;;6.10;;
8048;SDS011;20935;42.660;23.342;2024-02-26T11:30:26;7.77;;;6.23;;
8048;SDS011;20935;42.660;23.342;2024-02-26T11:33:16;6.43;;;5.83;;
8048;SDS011;20935;42.660;23.342;2024-02-26T11:36:01;7.00;;;6.00;;
8048;SDS011;20935;42.660;23.342;2024-02-26T11:38:46;6.73;;;6.13;;
8048;SDS011;20935;42.660;23.342;2024-02-26T11:41:36;7.87;;;6.10;;
8048;SDS011;20935;42.660;23.342;2024-02-26T11:44:28;8.40;;;5.90;;
8048;SDS011;20935;42.660;23.342;2024-02-26T11:47:14;5.60;;;5.00;;
8048;SDS011;20935;42.660;23.342;2024-02-26T11:53:23;7.77;;;5.10;;
8048;SDS011;20935;42.660;23.342;2024-02-26T11:56:22;5.23;;;4.73;;
8048;SDS011;20935;42.660;23.342;2024-02-26T11:59:09;8.20;;;5.53;;
8048;SDS011;20935;42.660;23.342;2024-02-26T12:01:54;7.60;;;5.20;;
8048;SDS011;20935;42.660;23.342;2024-02-26T12:04:41;5.33;;;4.83;;
8048;SDS011;20935;42.660;23.342;2024-02-26T12:07:26;8.43;;;5.27;;
8048;SDS011;20935;42.660;23.342;2024-02-26T12:10:20;6.37;;;4.77;;
8048;SDS011;20935;42.660;23.342;2024-02-26T12:13:10;7.50;;;4.67;;
8048;SDS011;20935;42.660;23.342;2024-02-26T12:15:56;6.37;;;4.97;;
8048;SDS011;20935;42.660;23.342;2024-02-26T12:18:45;6.37;;;4.73;;
8048;SDS011;20935;42.660;23.342;2024-02-26T12:21:30;6.93;;;4.73;;
8048;SDS011;20935;42.660;23.342;2024-02-26T12:24:16;8.63;;;5.23;;
8048;SDS011;20935;42.660;23.342;2024-02-26T12:27:04;6.60;;;4.73;;
8048;SDS011;20935;42.660;23.342;2024-02-26T12:29:50;6.53;;;4.93;;
8048;SDS011;20935;42.660;23.342;2024-02-26T12:32:35;6.63;;;5.20;;
8048;SDS011;20935;42.660;23.342;2024-02-26T12:35:20;6.73;;;5.03;;
8048;SDS011;20935;42.660;23.342;2024-02-26T12:38:05;5.27;;;4.70;;
8048;SDS011;20935;42.660;23.342;2024-02-26T12:40:50;6.43;;;4.80;;
8048;SDS011;20935;42.660;23.342;2024-02-26T12:43:37;7.17;;;5.60;;
8048;SDS011;20935;42.660;23.342;2024-02-26T12:46:24;6.83;;;4.57;;
8048;SDS011;20935;42.660;23.342;2024-02-26T12:49:14;8.57;;;4.67;;
8048;SDS011;20935;42.660;23.342;2024-02-26T12:51:59;5.87;;;4.90;;
8048;SDS011;20935;42.660;23.342;2024-02-26T12:54:48;7.13;;;4.47;;
8048;SDS011;20935;42.660;23.342;2024-02-26T12:57:34;8.00;;;4.40;;
8048;SDS011;20935;42.660;23.342;2024-02-26T13:00:23;6.53;;;4.40;;
8048;SDS011;20935;42.660;23.342;2024-02-26T13:03:09;8.70;;;5.00;;
8048;SDS011;20935;42.660;23.342;2024-02-26T13:05:56;6.63;;;5.17;;
8048;SDS011;20935;42.660;23.342;2024-02-26T13:08:43;7.37;;;4.73;;
8048;SDS011;20935;42.660;23.342;2024-02-26T13:11:29;5.97;;;4.50;;
8048;SDS011;20935;42.660;23.342;2024-02-26T13:14:20;8.07;;;5.23;;
8048;SDS011;20935;42.660;23.342;2024-02-26T13:17:08;6.07;;;4.40;;
8048;SDS011;20935;42.660;23.342;2024-02-26T13:19:55;5.77;;;5.17;;
8048;SDS011;20935;42.660;23.342;2024-02-26T13:22:41;5.07;;;4.30;;
8048;SDS011;20935;42.660;23.342;2024-02-26T13:25:28;6.47;;;4.77;;
8048;SDS011;20935;42.660;23.342;2024-02-26T13:28:16;5.87;;;4.30;;
8048;SDS011;20935;42.660;23.342;2024-02-26T13:31:04;5.53;;;4.43;;
8048;SDS011;20935;42.660;23.342;2024-02-26T13:33:54;6.23;;;4.67;;
8048;SDS011;20935;42.660;23.342;2024-02-26T13:36:41;7.67;;;4.87;;
8048;SDS011;20935;42.660;23.342;2024-02-26T13:39:28;7.93;;;4.70;;
8048;SDS011;20935;42.660;23.342;2024-02-26T13:42:15;4.63;;;4.07;;
8048;SDS011;20935;42.660;23.342;2024-02-26T13:45:02;7.10;;;4.60;;
8048;SDS011;20935;42.660;23.342;2024-02-26T13:47:51;7.37;;;4.40;;
8048;SDS011;20935;42.660;23.342;2024-02-26T13:50:39;5.20;;;4.20;;
8048;SDS011;20935;42.660;23.342;2024-02-26T13:53:26;6.47;;;4.47;;
8048;SDS011;20935;42.660;23.342;2024-02-26T13:56:13;4.63;;;4.00;;
8048;SDS011;20935;42.660;23.342;2024-02-26T13:59:00;7.07;;;4.40;;
8048;SDS011;20935;42.660;23.342;2024-02-26T14:01:46;6.70;;;4.33;;
8048;SDS011;20935;42.660;23.342;2024-02-26T14:04:33;5.53;;;3.87;;
8048;SDS011;20935;42.660;23.342;2024-02-26T14:07:21;4.63;;;4.23;;
8048;SDS011;20935;42.660;23.342;2024-02-26T14:10:09;6.43;;;4.00;;
8048;SDS011;20935;42.660;23.342;2024-02-26T14:12:58;5.17;;;4.10;;
8048;SDS011;20935;42.660;23.342;2024-02-26T14:15:45;4.53;;;4.03;;
8048;SDS011;20935;42.660;23.342;2024-02-26T14:18:32;5.17;;;4.30;;
8048;SDS011;20935;42.660;23.342;2024-02-26T14:21:19;8.03;;;4.60;;
8048;SDS011;20935;42.660;23.342;2024-02-26T14:24:07;4.40;;;3.90;;
8048;SDS011;20935;42.660;23.342;2024-02-26T14:26:54;5.07;;;4.23;;
8048;SDS011;20935;42.660;23.342;2024-02-26T14:29:41;5.50;;;4.03;;
8048;SDS011;20935;42.660;23.342;2024-02-26T14:32:28;4.80;;;4.20;;
8048;SDS011;20935;42.660;23.342;2024-02-26T14:35:16;5.43;;;4.27;;
8048;SDS011;20935;42.660;23.342;2024-02-26T14:38:03;5.70;;;4.03;;
8048;SDS011;20935;42.660;23.342;2024-02-26T14:40:52;4.73;;;4.03;;
8048;SDS011;20935;42.660;23.342;2024-02-26T14:43:38;7.10;;;4.50;;
8048;SDS011;20935;42.660;23.342;2024-02-26T14:46:25;8.03;;;4.50;;
8048;SDS011;20935;42.660;23.342;2024-02-26T14:49:12;5.10;;;3.90;;
8048;SDS011;20935;42.660;23.342;2024-02-26T14:51:59;7.13;;;3.93;;
8048;SDS011;20935;42.660;23.342;2024-02-26T14:54:46;5.87;;;4.30;;
8048;SDS011;20935;42.660;23.342;2024-02-26T14:57:35;7.70;;;4.27;;
8048;SDS011;20935;42.660;23.342;2024-02-26T15:00:22;7.97;;;3.70;;
8048;SDS011;20935;42.660;23.342;2024-02-26T15:03:09;5.70;;;3.90;;
8048;SDS011;20935;42.660;23.342;2024-02-26T15:05:55;5.80;;;3.97;;
8048;SDS011;20935;42.660;23.342;2024-02-26T15:08:42;9.83;;;3.77;;
8048;SDS011;20935;42.660;23.342;2024-02-26T15:11:29;7.37;;;4.00;;
8048;SDS011;20935;42.660;23.342;2024-02-26T15:14:17;8.43;;;3.97;;
8048;SDS011;20935;42.660;23.342;2024-02-26T15:17:04;11.83;;;4.67;;
8048;SDS011;20935;42.660;23.342;2024-02-26T15:19:55;7.90;;;4.50;;
8048;SDS011;20935;42.660;23.342;2024-02-26T15:22:44;8.57;;;4.17;;
8048;SDS011;20935;42.660;23.342;2024-02-26T15:25:32;10.33;;;5.17;;
8048;SDS011;20935;42.660;23.342;2024-02-26T15:28:18;6.90;;;4.90;;
8048;SDS011;20935;42.660;23.342;2024-02-26T15:31:07;8.00;;;4.23;;
8048;SDS011;20935;42.660;23.342;2024-02-26T15:33:54;6.77;;;4.27;;
8048;SDS011;20935;42.660;23.342;2024-02-26T15:36:40;7.17;;;4.30;;
8048;SDS011;20935;42.660;23.342;2024-02-26T15:39:27;6.13;;;3.90;;
8048;SDS011;20935;42.660;23.342;2024-02-26T15:42:14;8.80;;;5.13;;
8048;SDS011;20935;42.660;23.342;2024-02-26T15:45:01;9.60;;;4.50;;
8048;SDS011;20935;42.660;23.342;2024-02-26T15:47:51;9.50;;;5.00;;
8048;SDS011;20935;42.660;23.342;2024-02-26T15:50:38;9.90;;;4.60;;
8048;SDS011;20935;42.660;23.342;2024-02-26T15:53:26;8.73;;;4.50;;
8048;SDS011;20935;42.660;23.342;2024-02-26T15:56:13;6.73;;;4.00;;
8048;SDS011;20935;42.660;23.342;2024-02-26T15:59:00;5.97;;;4.10;;
8048;SDS011;20935;42.660;23.342;2024-02-26T16:01:48;4.93;;;4.43;;
8048;SDS011;20935;42.660;23.342;2024-02-26T16:04:36;10.77;;;4.37;;
8048;SDS011;20935;42.660;23.342;2024-02-26T16:07:23;8.17;;;4.77;;
8048;SDS011;20935;42.660;23.342;2024-02-26T16:10:12;9.70;;;4.77;;
8048;SDS011;20935;42.660;23.342;2024-02-26T16:13:00;5.47;;;4.20;;
8048;SDS011;20935;42.660;23.342;2024-02-26T16:15:48;6.97;;;4.80;;
8048;SDS011;20935;42.660;23.342;2024-02-26T16:18:37;6.73;;;4.47;;
8048;SDS011;20935;42.660;23.342;2024-02-26T16:21:25;9.43;;;5.10;;
8048;SDS011;20935;42.660;23.342;2024-02-26T16:24:12;7.07;;;4.47;;
8048;SDS011;20935;42.660;23.342;2024-02-26T16:26:58;6.77;;;4.27;;
8048;SDS011;20935;42.660;23.342;2024-02-26T16:29:45;8.40;;;4.70;;
8048;SDS011;20935;42.660;23.342;2024-02-26T16:32:33;10.13;;;5.30;;
8048;SDS011;20935;42.660;23.342;2024-02-26T16:35:19;6.87;;;4.73;;